createdAt,value
2023-01-01T00:00:40.643Z,14.70
2023-01-01T00:03:07.413Z,14.60
2023-01-01T00:05:37.719Z,14.60
2023-01-01T00:08:05.222Z,14.50
2023-01-01T00:10:32.870Z,14.50
2023-01-01T00:13:00.452Z,14.50
2023-01-01T00:15:27.675Z,14.50
2023-01-01T00:17:57.787Z,14.40
2023-01-01T00:20:28.694Z,14.40
2023-01-01T00:22:58.449Z,14.40
2023-01-01T00:25:25.455Z,14.40
2023-01-01T00:27:52.328Z,14.40
2023-01-01T00:30:19.629Z,14.30
2023-01-01T00:32:55.608Z,14.30
2023-01-01T00:35:26.690Z,14.20
2023-01-01T00:37:56.970Z,14.20
2023-01-01T00:40:23.768Z,14.10
2023-01-01T00:42:53.015Z,14.10
2023-01-01T00:45:22.377Z,14.00
2023-01-01T00:47:50.938Z,14.00
2023-01-01T00:50:21.048Z,13.90
2023-01-01T00:52:50.639Z,14.00
2023-01-01T00:55:17.494Z,14.00
2023-01-01T00:57:46.396Z,14.00
2023-01-01T01:00:13.947Z,13.90
2023-01-01T01:02:40.846Z,13.90
2023-01-01T01:05:08.226Z,13.90
2023-01-01T01:07:38.810Z,14.00
2023-01-01T01:10:06.890Z,14.10
2023-01-01T01:12:35.061Z,14.20
2023-01-01T01:15:05.747Z,14.10
2023-01-01T01:17:32.464Z,14.10
2023-01-01T01:19:59.192Z,14.10
2023-01-01T01:22:28.706Z,14.20
2023-01-01T01:24:58.341Z,14.20
2023-01-01T01:27:25.113Z,14.30
2023-01-01T01:29:54.627Z,14.30
2023-01-01T01:32:26.209Z,14.40
2023-01-01T01:34:55.113Z,14.50
2023-01-01T01:37:21.768Z,14.60
2023-01-01T01:39:53.569Z,14.50
2023-01-01T01:42:20.850Z,14.40
2023-01-01T01:44:52.247Z,14.50
2023-01-01T01:47:36.379Z,14.40
2023-01-01T01:50:23.387Z,14.40
2023-01-01T01:53:09.788Z,14.50
2023-01-01T01:55:40.845Z,14.50
2023-01-01T01:58:11.365Z,14.40
2023-01-01T02:00:38.052Z,14.30
2023-01-01T02:03:10.062Z,14.40
2023-01-01T02:05:41.302Z,14.40
2023-01-01T02:08:09.899Z,14.40
2023-01-01T02:10:38.808Z,14.30
2023-01-01T02:13:07.935Z,14.30
2023-01-01T02:16:04.669Z,14.30
2023-01-01T02:18:43.080Z,14.30
2023-01-01T02:21:22.289Z,14.20
2023-01-01T02:23:55.033Z,14.20
2023-01-01T02:26:45.789Z,14.20
2023-01-01T02:29:46.947Z,14.20
2023-01-01T02:32:22.398Z,14.20
2023-01-01T02:35:35.258Z,14.10
2023-01-01T02:38:07.622Z,14.10
2023-01-01T02:40:41.255Z,14.00
2023-01-01T02:43:08.026Z,14.10
2023-01-01T02:45:37.102Z,14.20
2023-01-01T02:48:30.199Z,14.20
2023-01-01T02:51:02.031Z,14.20
2023-01-01T02:53:36.195Z,14.20
2023-01-01T02:56:14.631Z,14.20
2023-01-01T02:59:05.806Z,14.10
2023-01-01T03:01:40.230Z,14.10
2023-01-01T03:04:21.510Z,14.10
2023-01-01T03:07:13.865Z,14.00
2023-01-01T03:10:04.962Z,14.00
2023-01-01T03:12:43.891Z,14.00
2023-01-01T03:15:42.841Z,13.90
2023-01-01T03:18:22.660Z,14.00
2023-01-01T03:20:51.404Z,14.00
2023-01-01T03:23:22.249Z,14.00
2023-01-01T03:25:51.463Z,14.00
2023-01-01T03:28:44.280Z,14.00
2023-01-01T03:31:14.983Z,14.00
2023-01-01T03:33:48.736Z,14.00
2023-01-01T03:36:21.336Z,14.00
2023-01-01T03:38:55.919Z,14.00
2023-01-01T03:41:44.149Z,14.00
2023-01-01T03:44:23.847Z,14.00
2023-01-01T03:46:50.899Z,14.00
2023-01-01T03:49:18.182Z,14.10
2023-01-01T03:51:56.947Z,14.00
2023-01-01T03:54:59.609Z,14.10
2023-01-01T03:57:35.412Z,14.10
2023-01-01T04:00:08.110Z,14.10
2023-01-01T04:02:42.624Z,14.10
2023-01-01T04:05:10.933Z,14.10
2023-01-01T04:07:39.082Z,14.10
2023-01-01T04:10:17.374Z,14.10
2023-01-01T04:12:52.481Z,14.10
2023-01-01T04:15:21.726Z,14.00
2023-01-01T04:17:48.585Z,14.10
2023-01-01T04:20:15.942Z,14.10
2023-01-01T04:22:42.874Z,14.10
2023-01-01T04:25:10.894Z,14.10
2023-01-01T04:27:38.766Z,14.10
2023-01-01T04:30:13.087Z,14.20
2023-01-01T04:32:40.219Z,14.10
2023-01-01T04:35:08.672Z,14.10
2023-01-01T04:37:36.540Z,14.20
2023-01-01T04:40:04.614Z,14.30
2023-01-01T04:42:31.325Z,14.30
2023-01-01T04:45:00.318Z,14.20
2023-01-01T04:47:27.277Z,14.20
2023-01-01T04:49:54.621Z,14.20
2023-01-01T04:52:24.061Z,14.20
2023-01-01T04:54:51.771Z,14.20
2023-01-01T04:57:18.494Z,14.20
2023-01-01T04:59:47.374Z,14.30
2023-01-01T05:02:14.151Z,14.30
2023-01-01T05:04:40.894Z,14.20
2023-01-01T05:07:07.593Z,14.30
2023-01-01T05:09:34.258Z,14.20
2023-01-01T05:12:00.950Z,14.30
2023-01-01T05:14:27.609Z,14.20
2023-01-01T05:16:54.406Z,14.20
2023-01-01T05:19:21.191Z,14.20
2023-01-01T05:21:50.361Z,14.20
2023-01-01T05:24:19.307Z,14.20
2023-01-01T05:26:46.385Z,14.10
2023-01-01T05:29:17.536Z,14.10
2023-01-01T05:31:49.489Z,14.20
2023-01-01T05:34:16.179Z,14.20
2023-01-01T05:36:43.035Z,14.20
2023-01-01T05:39:12.652Z,14.20
2023-01-01T05:41:40.565Z,14.20
2023-01-01T05:44:08.990Z,14.20
2023-01-01T05:46:36.211Z,14.20
2023-01-01T05:49:05.574Z,14.20
2023-01-01T05:54:01.129Z,14.20
2023-01-01T05:56:28.399Z,14.30
2023-01-01T05:58:58.050Z,14.30
2023-01-01T06:01:27.372Z,14.30
2023-01-01T06:03:55.969Z,14.30
2023-01-01T06:06:25.727Z,14.30
2023-01-01T06:08:54.869Z,14.30
2023-01-01T06:11:21.720Z,14.20
2023-01-01T06:13:54.528Z,14.30
2023-01-01T06:16:21.763Z,14.20
2023-01-01T06:18:49.115Z,14.20
2023-01-01T06:21:20.404Z,14.30
2023-01-01T06:23:47.651Z,14.30
2023-01-01T06:26:20.154Z,14.30
2023-01-01T06:28:47.626Z,14.30
2023-01-01T06:31:17.386Z,14.30
2023-01-01T06:33:44.173Z,14.20
2023-01-01T06:36:13.163Z,14.30
2023-01-01T06:38:42.921Z,14.20
2023-01-01T06:41:14.479Z,14.20
2023-01-01T06:43:41.399Z,14.10
2023-01-01T06:46:30.349Z,14.10
2023-01-01T06:49:02.650Z,14.10
2023-01-01T06:51:36.529Z,14.10
2023-01-01T06:54:04.841Z,14.00
2023-01-01T06:56:32.323Z,14.10
2023-01-01T06:59:00.375Z,14.00
2023-01-01T07:01:30.025Z,14.00
2023-01-01T07:03:59.507Z,14.00
2023-01-01T07:06:27.438Z,14.00
2023-01-01T07:08:54.236Z,14.00
2023-01-01T07:11:24.353Z,14.00
2023-01-01T07:13:54.209Z,14.00
2023-01-01T07:16:23.373Z,14.00
2023-01-01T07:18:52.389Z,14.00
2023-01-01T07:21:53.106Z,13.90
2023-01-01T07:24:22.557Z,14.00
2023-01-01T07:26:49.270Z,14.00
2023-01-01T07:29:16.099Z,14.10
2023-01-01T07:31:44.029Z,14.10
2023-01-01T07:34:17.087Z,14.20
2023-01-01T07:36:43.839Z,14.20
2023-01-01T07:39:10.647Z,14.10
2023-01-01T07:41:37.448Z,14.10
2023-01-01T07:44:04.618Z,14.20
2023-01-01T07:46:33.753Z,14.10
2023-01-01T07:49:05.686Z,14.10
2023-01-01T07:51:32.423Z,14.10
2023-01-01T07:54:06.512Z,14.10
2023-01-01T07:56:35.677Z,14.10
2023-01-01T07:59:02.505Z,14.10
2023-01-01T08:01:31.641Z,14.10
2023-01-01T08:03:58.433Z,14.10
2023-01-01T08:06:25.158Z,14.10
2023-01-01T08:08:51.837Z,14.20
2023-01-01T08:11:18.617Z,14.20
2023-01-01T08:13:47.650Z,14.20
2023-01-01T08:16:19.063Z,14.20
2023-01-01T08:18:49.158Z,14.20
2023-01-01T08:21:15.831Z,14.30
2023-01-01T08:23:42.515Z,14.30
2023-01-01T08:26:15.224Z,14.30
2023-01-01T08:28:42.041Z,14.40
2023-01-01T08:31:11.385Z,14.30
2023-01-01T08:33:38.064Z,14.30
2023-01-01T08:36:05.133Z,14.40
2023-01-01T08:38:31.785Z,14.40
2023-01-01T08:40:58.506Z,14.50
2023-01-01T08:43:27.841Z,14.40
2023-01-01T08:45:54.513Z,14.40
2023-01-01T08:48:24.375Z,14.40
2023-01-01T08:50:56.411Z,14.40
2023-01-01T08:53:23.424Z,14.40
2023-01-01T08:56:01.450Z,14.40
2023-01-01T08:58:28.201Z,14.40
2023-01-01T09:00:55.001Z,14.40
2023-01-01T09:03:22.303Z,14.40
2023-01-01T09:05:49.150Z,14.30
2023-01-01T09:08:16.147Z,14.40
2023-01-01T09:10:46.227Z,14.40
2023-01-01T09:13:15.453Z,14.40
2023-01-01T09:15:45.236Z,14.40
2023-01-01T09:18:12.470Z,14.50
2023-01-01T09:20:39.742Z,14.50
2023-01-01T09:23:10.458Z,14.60
2023-01-01T09:25:37.465Z,14.60
2023-01-01T09:28:06.856Z,14.50
2023-01-01T09:30:34.675Z,14.50
2023-01-01T09:33:02.148Z,14.50
2023-01-01T09:35:32.304Z,14.50
2023-01-01T09:38:01.292Z,14.50
2023-01-01T09:40:34.209Z,14.50
2023-01-01T09:43:24.702Z,14.50
2023-01-01T09:46:01.199Z,14.50
2023-01-01T09:48:30.993Z,14.50
2023-01-01T09:50:58.806Z,14.50
2023-01-01T09:53:42.880Z,14.50
2023-01-01T09:56:25.810Z,14.50
2023-01-01T09:58:53.337Z,14.50
2023-01-01T10:01:46.207Z,14.60
2023-01-01T10:04:27.285Z,14.70
2023-01-01T10:07:02.505Z,14.60
2023-01-01T10:09:47.232Z,14.60
2023-01-01T10:12:44.110Z,14.60
2023-01-01T10:15:16.899Z,14.70
2023-01-01T10:17:57.908Z,14.70
2023-01-01T10:20:32.007Z,14.70
2023-01-01T10:23:03.609Z,14.70
2023-01-01T10:25:35.358Z,14.70
2023-01-01T10:28:25.735Z,14.70
2023-01-01T10:31:10.787Z,14.70
2023-01-01T10:33:40.134Z,14.70
2023-01-01T10:36:12.056Z,14.70
2023-01-01T10:38:42.109Z,14.70
2023-01-01T10:41:19.040Z,14.70
2023-01-01T10:43:48.320Z,14.70
2023-01-01T10:46:26.015Z,14.70
2023-01-01T10:49:13.671Z,14.70
2023-01-01T10:51:50.976Z,14.60
2023-01-01T10:54:31.252Z,14.60
2023-01-01T10:56:58.805Z,14.60
2023-01-01T10:59:34.273Z,14.70
2023-01-01T11:02:24.590Z,14.70
2023-01-01T11:04:52.798Z,14.70
2023-01-01T11:07:28.653Z,14.70
2023-01-01T11:10:04.316Z,14.60
2023-01-01T11:15:36.466Z,14.70
2023-01-01T11:18:21.288Z,14.60
2023-01-01T11:20:56.356Z,14.70
2023-01-01T11:23:40.786Z,14.70
2023-01-01T11:26:24.507Z,14.70
2023-01-01T11:29:17.347Z,14.70
2023-01-01T11:31:49.329Z,14.60
2023-01-01T11:34:22.172Z,14.70
2023-01-01T11:36:54.419Z,14.70
2023-01-01T11:39:26.783Z,14.70
2023-01-01T11:41:56.645Z,14.60
2023-01-01T11:44:35.125Z,14.60
2023-01-01T11:47:05.494Z,14.60
2023-01-01T11:49:34.963Z,14.50
2023-01-01T11:52:21.601Z,14.60
2023-01-01T11:54:48.701Z,14.50
2023-01-01T11:57:21.662Z,14.60
2023-01-01T11:59:56.261Z,14.60
2023-01-01T12:02:43.571Z,14.60
2023-01-01T12:05:22.248Z,14.60
2023-01-01T12:07:49.726Z,14.60
2023-01-01T12:10:20.422Z,14.60
2023-01-01T12:13:11.032Z,14.70
2023-01-01T12:15:46.388Z,14.70
2023-01-01T12:18:31.480Z,14.70
2023-01-01T12:21:09.548Z,14.70
2023-01-01T12:23:36.692Z,14.70
2023-01-01T12:26:26.967Z,14.80
2023-01-01T12:28:59.575Z,14.70
2023-01-01T12:31:41.689Z,14.70
2023-01-01T12:34:45.438Z,14.70
2023-01-01T12:37:27.222Z,14.80
2023-01-01T12:40:27.472Z,14.80
2023-01-01T12:43:02.962Z,14.70
2023-01-01T12:45:44.150Z,14.80
2023-01-01T12:48:33.976Z,14.80
2023-01-01T12:51:05.155Z,14.80
2023-01-01T12:53:35.277Z,14.80
2023-01-01T12:56:01.868Z,14.80
2023-01-01T12:58:56.107Z,14.80
2023-01-01T13:01:32.865Z,14.80
2023-01-01T13:04:07.444Z,14.80
2023-01-01T13:06:48.608Z,14.80
2023-01-01T13:09:27.126Z,14.80
2023-01-01T13:12:01.312Z,14.90
2023-01-01T13:14:31.285Z,14.90
2023-01-01T13:16:58.315Z,14.90
2023-01-01T13:19:37.589Z,14.90
2023-01-01T13:22:26.090Z,15.00
2023-01-01T13:25:11.185Z,15.00
2023-01-01T13:28:05.094Z,14.90
2023-01-01T13:30:45.986Z,14.90
2023-01-01T13:33:32.352Z,14.90
2023-01-01T13:36:13.968Z,14.90
2023-01-01T13:38:54.056Z,14.80
2023-01-01T13:41:27.173Z,14.70
2023-01-01T13:44:18.469Z,14.70
2023-01-01T13:47:07.199Z,14.70
2023-01-01T13:50:05.821Z,14.70
2023-01-01T13:53:10.484Z,14.70
2023-01-01T13:55:58.260Z,14.80
2023-01-01T13:58:45.180Z,14.90
2023-01-01T14:01:50.953Z,14.90
2023-01-01T14:04:27.658Z,14.90
2023-01-01T14:07:09.301Z,14.90
2023-01-01T14:09:47.088Z,14.90
2023-01-01T14:12:19.064Z,14.80
2023-01-01T14:14:48.541Z,14.80
2023-01-01T14:17:19.983Z,14.80
2023-01-01T14:19:50.100Z,14.80
2023-01-01T14:22:19.379Z,14.90
2023-01-01T14:24:50.028Z,14.80
2023-01-01T14:27:20.852Z,14.80
2023-01-01T14:29:50.552Z,14.80
2023-01-01T14:32:25.428Z,14.90
2023-01-01T14:35:00.744Z,14.90
2023-01-01T14:37:27.837Z,14.90
2023-01-01T14:40:29.167Z,14.80
2023-01-01T14:43:05.221Z,14.70
2023-01-01T14:45:35.677Z,14.80
2023-01-01T14:48:05.263Z,14.70
2023-01-01T14:50:34.110Z,14.70
2023-01-01T14:53:11.645Z,14.50
2023-01-01T14:55:47.043Z,14.50
2023-01-01T14:58:28.138Z,14.50
2023-01-01T15:01:13.181Z,14.50
2023-01-01T15:03:39.921Z,14.40
2023-01-01T15:06:17.463Z,14.40
2023-01-01T15:08:50.927Z,14.40
2023-01-01T15:11:22.292Z,14.30
2023-01-01T15:14:05.229Z,14.30
2023-01-01T15:16:39.732Z,14.30
2023-01-01T15:19:18.134Z,14.20
2023-01-01T15:21:45.220Z,14.20
2023-01-01T15:24:13.622Z,14.20
2023-01-01T15:26:51.186Z,14.20
2023-01-01T15:29:27.464Z,14.20
2023-01-01T15:32:01.014Z,14.20
2023-01-01T15:34:43.424Z,14.20
2023-01-01T15:37:28.854Z,14.30
2023-01-01T15:40:24.721Z,14.30
2023-01-01T15:42:59.975Z,14.30
2023-01-01T15:45:40.024Z,14.20
2023-01-01T15:48:06.689Z,14.20
2023-01-01T15:50:52.675Z,14.20
2023-01-01T15:53:29.723Z,14.20
2023-01-01T15:56:02.591Z,14.20
2023-01-01T15:58:38.543Z,14.10
2023-01-01T16:01:15.732Z,14.10
2023-01-01T16:03:45.787Z,14.00
2023-01-01T16:06:17.696Z,14.00
2023-01-01T16:08:44.369Z,14.00
2023-01-01T16:11:11.064Z,14.00
2023-01-01T16:13:37.719Z,13.90
2023-01-01T16:16:07.347Z,13.90
2023-01-01T16:18:39.175Z,13.90
2023-01-01T16:21:06.942Z,13.90
2023-01-01T16:23:35.863Z,13.90
2023-01-01T16:26:02.554Z,13.90
2023-01-01T16:28:31.406Z,13.80
2023-01-01T16:30:58.209Z,13.80
2023-01-01T16:33:27.246Z,13.80
2023-01-01T16:35:53.894Z,13.80
2023-01-01T16:38:20.626Z,13.80
2023-01-01T16:40:47.314Z,13.80
2023-01-01T16:43:18.017Z,13.70
2023-01-01T16:45:45.149Z,13.70
2023-01-01T16:48:12.044Z,13.70
2023-01-01T16:50:39.651Z,13.70
2023-01-01T16:53:06.330Z,13.70
2023-01-01T16:55:33.033Z,13.70
2023-01-01T16:58:29.519Z,13.60
2023-01-01T17:00:49.763Z,13.60
2023-01-01T17:03:16.658Z,13.60
2023-01-01T17:05:44.637Z,13.60
2023-01-01T17:08:11.906Z,13.60
2023-01-01T17:10:38.618Z,13.60
2023-01-01T17:13:05.353Z,13.60
2023-01-01T17:15:32.569Z,13.60
2023-01-01T17:17:59.690Z,13.60
2023-01-01T17:20:29.496Z,13.60
2023-01-01T17:22:56.149Z,13.60
2023-01-01T17:25:23.166Z,13.60
2023-01-01T17:27:49.887Z,13.60
2023-01-01T17:30:16.645Z,13.60
2023-01-01T17:32:43.416Z,13.60
2023-01-01T17:35:12.546Z,13.50
2023-01-01T17:37:40.459Z,13.60
2023-01-01T17:40:07.781Z,13.60
2023-01-01T17:42:35.419Z,13.60
2023-01-01T17:45:04.599Z,13.50
2023-01-01T17:47:33.121Z,13.50
2023-01-01T17:50:00.220Z,13.60
2023-01-01T17:52:26.943Z,13.50
2023-01-01T17:54:53.646Z,13.50
2023-01-01T17:57:20.671Z,13.50
2023-01-01T17:59:49.827Z,13.50
2023-01-01T18:02:16.643Z,13.40
2023-01-01T18:04:43.665Z,13.30
2023-01-01T18:07:10.337Z,13.30
2023-01-01T18:09:38.327Z,13.20
2023-01-01T18:12:05.794Z,13.20
2023-01-01T18:14:32.521Z,13.20
2023-01-01T18:16:59.349Z,13.20
2023-01-01T18:19:27.651Z,13.20
2023-01-01T18:21:56.833Z,13.10
2023-01-01T18:24:23.548Z,13.10
2023-01-01T18:26:52.483Z,13.00
2023-01-01T18:29:19.312Z,13.00
2023-01-01T18:31:46.072Z,12.90
2023-01-01T18:34:12.762Z,12.90
2023-01-01T18:36:39.647Z,12.90
2023-01-01T18:39:19.796Z,12.90
2023-01-01T18:42:10.013Z,12.90
2023-01-01T18:44:39.273Z,12.80
2023-01-01T18:47:05.930Z,12.80
2023-01-01T18:49:37.093Z,12.80
2023-01-01T18:52:27.935Z,12.80
2023-01-01T18:54:57.907Z,12.80
2023-01-01T18:57:29.337Z,12.80
2023-01-01T18:59:59.301Z,12.70
2023-01-01T19:02:43.436Z,12.80
2023-01-01T19:05:27.258Z,12.80
2023-01-01T19:08:06.193Z,12.70
2023-01-01T19:10:45.147Z,12.80
2023-01-01T19:13:37.871Z,12.80
2023-01-01T19:16:10.630Z,12.80
2023-01-01T19:18:39.677Z,12.80
2023-01-01T19:21:12.609Z,12.80
2023-01-01T19:23:53.207Z,12.80
2023-01-01T19:26:27.068Z,12.80
2023-01-01T19:29:02.200Z,12.80
2023-01-01T19:31:33.759Z,12.80
2023-01-01T19:34:00.451Z,12.80
2023-01-01T19:36:31.710Z,12.80
2023-01-01T19:38:58.443Z,12.90
2023-01-01T19:41:25.159Z,12.80
2023-01-01T19:43:51.898Z,12.80
2023-01-01T19:46:21.033Z,12.70
2023-01-01T19:48:49.172Z,12.80
2023-01-01T19:51:16.048Z,12.80
2023-01-01T19:53:44.931Z,12.80
2023-01-01T19:56:11.777Z,12.80
2023-01-01T19:58:38.505Z,12.80
2023-01-01T20:01:05.471Z,12.70
2023-01-01T20:03:53.613Z,12.70
2023-01-01T20:06:18.946Z,12.60
2023-01-01T20:08:45.640Z,12.60
2023-01-01T20:11:15.385Z,12.70
2023-01-01T20:13:42.121Z,12.70
2023-01-01T20:16:09.465Z,12.70
2023-01-01T20:18:36.414Z,12.80
2023-01-01T20:21:26.804Z,12.80
2023-01-01T20:23:56.658Z,12.80
2023-01-01T20:26:25.540Z,12.90
2023-01-01T20:29:11.267Z,12.90
2023-01-01T20:31:38.046Z,12.90
2023-01-01T20:34:04.848Z,12.90
2023-01-01T20:36:49.937Z,12.80
2023-01-01T20:39:16.625Z,12.80
2023-01-01T20:41:43.289Z,12.80
2023-01-01T20:44:09.997Z,12.80
2023-01-01T20:46:38.277Z,12.80
2023-01-01T20:49:05.301Z,12.90
2023-01-01T20:51:34.250Z,12.90
2023-01-01T20:54:00.942Z,12.90
2023-01-01T20:56:30.204Z,12.90
2023-01-01T20:59:01.804Z,12.90
2023-01-01T21:01:31.893Z,12.90
2023-01-01T21:03:58.879Z,12.90
2023-01-01T21:06:25.562Z,13.00
2023-01-01T21:08:54.453Z,13.00
2023-01-01T21:11:21.319Z,13.00
2023-01-01T21:13:48.901Z,13.00
2023-01-01T21:16:36.420Z,13.00
2023-01-01T21:19:07.582Z,13.10
2023-01-01T21:22:07.045Z,13.10
2023-01-01T21:24:37.789Z,13.10
2023-01-01T21:27:20.759Z,13.10
2023-01-01T21:29:50.458Z,13.10
2023-01-01T21:32:26.914Z,13.20
2023-01-01T21:34:55.209Z,13.10
2023-01-01T21:37:48.290Z,13.10
2023-01-01T21:40:33.062Z,13.20
2023-01-01T21:43:17.800Z,13.20
2023-01-01T21:45:47.392Z,13.20
2023-01-01T21:48:14.156Z,13.20
2023-01-01T21:50:45.612Z,13.20
2023-01-01T21:53:21.047Z,13.20
2023-01-01T21:55:53.533Z,13.20
2023-01-01T21:59:02.570Z,13.20
2023-01-01T22:01:44.225Z,13.20
2023-01-01T22:04:11.150Z,13.30
2023-01-01T22:06:44.333Z,13.30
2023-01-01T22:09:23.394Z,13.30
2023-01-01T22:11:53.009Z,13.30
2023-01-01T22:14:24.786Z,13.30
2023-01-01T22:16:58.265Z,13.30
2023-01-01T22:19:32.002Z,13.30
2023-01-01T22:21:59.701Z,13.40
2023-01-01T22:24:26.353Z,13.40
2023-01-01T22:26:55.447Z,13.40
2023-01-01T22:29:24.591Z,13.40
2023-01-01T22:32:11.939Z,13.50
2023-01-01T22:34:40.758Z,13.40
2023-01-01T22:37:29.164Z,13.40
2023-01-01T22:39:55.841Z,13.50
2023-01-01T22:42:27.608Z,13.50
2023-01-01T22:44:59.107Z,13.50
2023-01-01T22:47:32.980Z,13.50
2023-01-01T22:50:01.349Z,13.50
2023-01-01T22:52:30.309Z,13.50
2023-01-01T22:54:57.072Z,13.50
2023-01-01T22:57:23.831Z,13.50
2023-01-01T22:59:50.513Z,13.50
2023-01-01T23:02:19.514Z,13.50
2023-01-01T23:04:46.208Z,13.50
2023-01-01T23:07:14.468Z,13.60
2023-01-01T23:09:42.975Z,13.60
2023-01-01T23:12:09.872Z,13.60
2023-01-01T23:14:55.221Z,13.60
2023-01-01T23:17:21.948Z,13.60
2023-01-01T23:19:48.717Z,13.60
2023-01-01T23:22:16.523Z,13.60
2023-01-01T23:24:44.063Z,13.60
2023-01-01T23:27:14.984Z,13.60
2023-01-01T23:29:47.534Z,13.60
2023-01-01T23:32:14.932Z,13.60
2023-01-01T23:34:42.823Z,13.60
2023-01-01T23:37:11.007Z,13.70
2023-01-01T23:39:37.800Z,13.70
2023-01-01T23:42:04.522Z,13.70
2023-01-01T23:44:35.432Z,13.60
2023-01-01T23:47:05.093Z,13.70
2023-01-01T23:49:33.094Z,13.70
2023-01-01T23:52:00.266Z,13.70
2023-01-01T23:54:26.941Z,13.70
2023-01-01T23:56:54.407Z,13.70
2023-01-01T23:59:23.469Z,13.70
